SBRJ

Rio de Janeiro/Santos Dumont Airport

Airport
ICAO code
SBRJ
IATA Code
SDU
Summary
ICAO Region
CARSAM
ICAO Territory
Location

Rio de Janeiro, Rio de Janeiro

Serving
Rio de Janeiro
Elevation
11 ft
Coordinates
22° 54' 37" S , 43° 9' 54" W
KCC
Metar
SBRJ 152300Z 19008KT 9999 FEW015 SCT020 BKN030 20/17 Q1025

Santos Dumont Airport serves Rio de Janeiro, Brazil. It is the city's second major airport after Rio de Janeiro-Galeão International Airport. Located adjacent to the city's downtown.

Climatology

Rio has a Tropical Savanna climate (Köppen climate classification Aw). The temperature occasionally reaches over 40°C in February and maximum daytime temperatures often rise above 30°C all year round. Between December and March there is often very heavy rainfall. The winter months, June to August, are milder with cooler night time temperatures and less rain.

Runways

Designator Length Width Surface Rops
02L/20R 1260 30 ASP Yes/Yes
02R/20L 1323 42 ASP Yes/Yes

Airport map

Aerial View

SKYbrary Partners:

Safety knowledge contributed by: